Time;durP1;ratioP1;P1;durP2;ratioP2;P2;SDS_P1;SDS_P2;PMS_P1;PMS_P2;Temp;Humidity;BMP_temperature;BMP_pressure;BME280_temperature;BME280_humidity;BME280_pressure;Samples;Min_cycle;Max_cycle;Signal;HPM_P1;HPM_P2
2023/12/12 04:15:30;;;;;;;3.65;1.90;;;17.20;79.70;;;;;;10589933;27;20119;-48
2023/12/12 04:20:32;;;;;;;6.05;1.85;;;17.20;80.20;;;;;;10569357;28;20720;-49
2023/12/12 04:25:34;;;;;;;3.70;1.83;;;17.20;80.20;;;;;;10584120;28;20048;-48
2023/12/12 04:30:38;;;;;;;6.97;1.70;;;17.20;80.00;;;;;;10560616;28;20055;-53
2023/12/12 04:35:40;;;;;;;4.72;2.10;;;17.30;79.80;;;;;;10560761;28;20457;-48
2023/12/12 04:40:42;;;;;;;4.18;2.35;;;17.30;79.70;;;;;;10562654;28;20071;-48
2023/12/12 04:45:45;;;;;;;;;;;17.30;79.60;;;;;;10569419;28;20210;-48
2023/12/12 04:50:47;;;;;;;7.78;2.00;;;17.30;79.60;;;;;;10568197;28;19973;-49
2023/12/12 04:55:49;;;;;;;5.65;1.65;;;17.30;79.50;;;;;;10563084;28;20402;-50
2023/12/12 05:00:53;;;;;;;3.80;1.85;;;17.30;79.60;;;;;;10562632;28;20055;-48
2023/12/12 05:05:55;;;;;;;5.13;2.15;;;17.30;79.60;;;;;;10576004;28;20139;-47
2023/12/12 05:10:58;;;;;;;5.28;1.60;;;17.30;79.50;;;;;;10559536;28;20060;-48
2023/12/12 05:16:03;;;;;;;5.65;1.98;;;17.30;79.30;;;;;;10561712;28;20058;-48
2023/12/12 05:21:06;;;;;;;4.78;2.00;;;17.30;79.10;;;;;;10552902;28;20048;-50
2023/12/12 05:26:11;;;;;;;4.70;1.60;;;17.40;79.00;;;;;;10536103;28;20051;-48
2023/12/12 05:31:14;;;;;;;4.30;2.10;;;17.50;78.90;;;;;;10537612;28;20129;-48
2023/12/12 05:36:16;;;;;;;6.28;1.88;;;17.50;78.80;;;;;;10541090;28;20445;-47
2023/12/12 05:41:18;;;;;;;4.53;2.15;;;17.50;78.80;;;;;;10537481;28;20055;-50
2023/12/12 05:46:23;;;;;;;5.47;1.87;;;17.50;78.80;;;;;;10548218;28;20528;-48
2023/12/12 05:51:26;;;;;;;4.93;2.00;;;17.60;78.80;;;;;;10548910;28;20550;-50
2023/12/12 05:56:28;;;;;;;5.88;1.95;;;17.60;78.90;;;;;;10531545;28;20060;-49
2023/12/12 06:01:31;;;;;;;7.20;1.88;;;17.60;78.90;;;;;;10509068;28;20059;-48
2023/12/12 06:06:33;;;;;;;8.15;2.05;;;17.60;78.90;;;;;;10529523;28;20056;-47
2023/12/12 06:11:35;;;;;;;7.32;1.70;;;17.70;78.90;;;;;;10523013;28;20051;-47
2023/12/12 06:16:38;;;;;;;4.40;1.70;;;17.70;78.90;;;;;;10532709;28;20130;-47
2023/12/12 06:21:40;;;;;;;5.30;1.67;;;17.70;78.90;;;;;;10520707;28;20059;-50
2023/12/12 06:26:42;;;;;;;4.75;1.75;;;17.80;78.90;;;;;;10530748;28;20048;-48
2023/12/12 06:31:46;;;;;;;5.30;1.75;;;17.70;78.90;;;;;;10527619;28;20366;-48
2023/12/12 06:36:48;;;;;;;4.25;2.00;;;17.80;78.90;;;;;;10519441;28;20052;-48
2023/12/12 06:41:50;;;;;;;8.55;1.90;;;17.80;78.90;;;;;;10528397;28;20093;-49
2023/12/12 06:46:53;;;;;;;4.70;1.90;;;17.80;78.90;;;;;;10513393;28;20514;-48
2023/12/12 06:51:55;;;;;;;4.43;2.05;;;17.90;78.80;;;;;;10517976;28;20055;-51
2023/12/12 06:56:57;;;;;;;5.93;1.75;;;17.90;78.90;;;;;;10516026;28;20047;-48
2023/12/12 07:02:01;;;;;;;6.75;2.08;;;17.90;78.90;;;;;;10518750;28;20463;-48
2023/12/12 07:07:04;;;;;;;4.50;1.95;;;17.90;78.90;;;;;;10532104;28;20051;-50
2023/12/12 07:12:07;;;;;;;3.83;1.67;;;17.90;79.00;;;;;;10523029;28;20050;-52
2023/12/12 07:17:10;;;;;;;3.58;1.60;;;17.90;79.00;;;;;;10508806;28;20040;-51
2023/12/12 07:22:12;;;;;;;5.10;2.05;;;17.90;78.90;;;;;;10525780;28;20047;-49
2023/12/12 07:27:16;;;;;;;4.25;1.80;;;17.90;79.00;;;;;;10522897;28;20521;-49
2023/12/12 07:32:19;;;;;;;4.70;1.60;;;17.90;79.00;;;;;;10523223;28;20043;-49
2023/12/12 07:37:21;;;;;;;5.18;1.70;;;17.90;79.00;;;;;;10520513;28;20094;-47
2023/12/12 07:42:28;;;;;;;7.72;2.05;;;17.90;78.90;;;;;;10531892;28;20051;-51
2023/12/12 07:47:31;;;;;;;5.50;1.85;;;18.00;79.00;;;;;;10531096;28;20048;-48
2023/12/12 07:52:33;;;;;;;6.65;1.85;;;18.00;78.90;;;;;;10526000;28;20056;-50
2023/12/12 07:57:35;;;;;;;6.40;2.25;;;18.00;78.90;;;;;;10534823;28;20049;-52
2023/12/12 08:02:39;;;;;;;4.50;1.55;;;18.00;78.90;;;;;;10539244;28;20462;-49
2023/12/12 08:07:40;;;;;;;4.30;1.48;;;18.00;79.00;;;;;;10526023;28;20068;-51
2023/12/12 08:12:43;;;;;;;4.73;1.77;;;18.00;78.90;;;;;;10527407;28;20048;-49
2023/12/12 08:17:46;;;;;;;3.95;1.60;;;17.90;78.90;;;;;;10522308;28;20562;-50
2023/12/12 08:22:48;;;;;;;5.63;1.50;;;18.00;78.90;;;;;;10531246;28;20048;-49
2023/12/12 08:27:50;;;;;;;2.55;1.52;;;17.90;78.90;;;;;;10514286;28;20059;-50
2023/12/12 08:32:53;;;;;;;7.47;2.17;;;17.90;78.90;;;;;;10534116;28;20040;-48
2023/12/12 08:37:56;;;;;;;5.82;2.30;;;17.90;78.90;;;;;;10513142;28;21081;-50
2023/12/12 08:42:57;;;;;;;4.63;2.33;;;17.90;78.90;;;;;;10521897;28;20048;-49
2023/12/12 08:48:01;;;;;;;4.97;2.00;;;17.90;78.90;;;;;;10520295;28;20109;-51
2023/12/12 08:53:03;;;;;;;6.10;2.08;;;17.80;78.90;;;;;;10528738;28;21048;-50
2023/12/12 08:58:05;;;;;;;7.13;2.70;;;17.80;79.00;;;;;;10555171;28;20047;-49
2023/12/12 09:03:08;;;;;;;4.80;2.03;;;17.80;79.10;;;;;;10558358;28;20043;-52
2023/12/12 09:08:13;;;;;;;5.75;2.10;;;17.80;79.20;;;;;;10512838;28;20053;-49
2023/12/12 09:13:15;;;;;;;7.38;2.65;;;17.70;79.20;;;;;;10532400;28;20055;-49
2023/12/12 09:18:18;;;;;;;5.28;2.22;;;17.70;79.20;;;;;;10528702;28;20052;-49
2023/12/12 09:23:20;;;;;;;5.55;2.33;;;17.70;79.20;;;;;;10530321;28;20058;-49
2023/12/12 09:28:22;;;;;;;7.60;2.55;;;17.70;79.30;;;;;;10520262;28;20070;-51
2023/12/12 09:33:26;;;;;;;8.57;3.17;;;17.70;79.30;;;;;;10531799;28;20048;-48
2023/12/12 09:38:28;;;;;;;6.20;2.35;;;17.60;79.40;;;;;;10521511;28;20140;-50
2023/12/12 09:43:30;;;;;;;6.75;2.35;;;17.60;79.30;;;;;;10541751;28;20051;-51
2023/12/12 09:48:35;;;;;;;6.93;2.83;;;17.70;79.40;;;;;;10532945;27;20481;-52
2023/12/12 09:53:40;;;;;;;9.35;2.90;;;17.60;79.50;;;;;;10542664;28;20036;-54
2023/12/12 09:58:45;;;;;;;9.05;2.67;;;17.60;79.60;;;;;;10522994;28;20133;-48
2023/12/12 10:03:49;;;;;;;8.90;2.67;;;17.60;79.80;;;;;;10523997;28;20048;-50
2023/12/12 10:08:51;;;;;;;6.13;2.13;;;17.50;79.80;;;;;;10530701;28;20060;-50
2023/12/12 10:13:54;;;;;;;;;;;17.60;79.90;;;;;;10523270;28;20059;-53
2023/12/12 10:19:02;;;;;;;8.52;2.55;;;17.60;79.90;;;;;;10538311;28;20330;-52
2023/12/12 10:24:04;;;;;;;9.82;2.78;;;17.60;79.90;;;;;;10508530;28;20131;-51
2023/12/12 10:29:06;;;;;;;6.90;2.72;;;17.60;80.10;;;;;;10513629;28;20052;-52
2023/12/12 10:34:10;;;;;;;9.40;2.83;;;17.50;80.20;;;;;;10514811;28;20430;-50
2023/12/12 10:39:13;;;;;;;7.10;2.83;;;17.50;80.10;;;;;;10513044;28;20537;-50
2023/12/12 10:44:15;;;;;;;7.07;2.30;;;17.50;80.40;;;;;;10515582;28;20514;-49
2023/12/12 10:49:21;;;;;;;7.05;3.05;;;17.50;80.40;;;;;;10516450;28;20060;-49
2023/12/12 10:54:25;;;;;;;10.10;3.13;;;17.50;80.60;;;;;;10522481;28;20454;-51
2023/12/12 12:33:52;;;;;;;21.42;4.63;;;17.70;92.00;;;;;;10515227;27;20648;-68
2023/12/12 12:39:04;;;;;;;12.80;6.78;;;17.70;91.60;;;;;;10491819;28;20133;-64
2023/12/12 12:44:06;;;;;;;10.55;5.55;;;15.20;92.10;;;;;;10495246;28;20090;-62
2023/12/12 12:49:10;;;;;;;8.30;4.45;;;15.40;92.10;;;;;;10506522;28;20105;-62
2023/12/12 12:54:13;;;;;;;5.93;2.45;;;15.90;91.00;;;;;;10499126;28;20105;-64
2023/12/12 12:59:18;;;;;;;5.45;3.10;;;16.10;91.00;;;;;;10502713;28;20055;-64
2023/12/12 13:04:21;;;;;;;6.30;3.00;;;16.20;90.70;;;;;;10497820;28;20193;-63
2023/12/12 13:09:23;;;;;;;5.85;2.70;;;16.20;90.90;;;;;;10504310;28;21014;-64
2023/12/12 13:14:26;;;;;;;10.50;2.72;;;16.50;90.40;;;;;;10506855;28;20048;-62
2023/12/12 13:19:29;;;;;;;2.42;2.00;;;16.50;90.70;;;;;;10499402;28;20051;-63
2023/12/12 13:24:31;;;;;;;3.78;1.80;;;16.70;90.10;;;;;;10502399;28;20075;-62
2023/12/12 13:29:33;;;;;;;4.45;2.70;;;16.50;90.50;;;;;;10503510;28;20055;-62
2023/12/12 13:34:37;;;;;;;5.18;2.53;;;16.40;90.60;;;;;;10502803;28;20724;-63
2023/12/12 13:39:39;;;;;;;3.45;3.10;;;16.40;90.60;;;;;;10498471;28;20055;-63
2023/12/12 13:44:41;;;;;;;9.83;5.40;;;16.20;91.30;;;;;;10471964;28;20140;-62
2023/12/12 13:49:44;;;;;;;7.88;6.68;;;15.50;92.90;;;;;;10477887;28;20482;-61
2023/12/12 13:54:47;;;;;;;10.32;5.05;;;14.10;96.40;;;;;;10472909;28;20589;-62
2023/12/12 13:59:50;;;;;;;9.65;7.32;;;14.30;98.50;;;;;;10477839;28;20048;-61
2023/12/12 14:04:53;;;;;;;;;;;14.10;99.20;;;;;;10477188;28;20116;-63
2023/12/12 14:09:55;;;;;;;11.07;7.22;;;14.50;98.80;;;;;;10480552;28;19920;-63
2023/12/12 14:14:57;;;;;;;7.22;5.13;;;14.00;99.90;;;;;;10476962;28;20533;-63
2023/12/12 14:20:01;;;;;;;10.27;6.73;;;15.10;98.30;;;;;;10469977;28;20410;-63
2023/12/12 14:25:05;;;;;;;11.90;8.73;;;14.80;98.70;;;;;;10467650;28;20754;-63
2023/12/12 14:30:08;;;;;;;11.55;8.52;;;13.90;99.90;;;;;;10478778;28;20052;-62
2023/12/12 14:35:12;;;;;;;11.23;7.50;;;13.70;99.90;;;;;;10464399;28;20053;-62
2023/12/12 14:40:14;;;;;;;10.85;7.93;;;14.60;99.90;;;;;;10465568;28;20048;-62
2023/12/12 14:45:16;;;;;;;10.48;6.75;;;13.50;99.90;;;;;;10479490;28;20737;-62
2023/12/12 14:50:20;;;;;;;13.97;9.33;;;13.00;99.90;;;;;;10476177;28;20087;-62
2023/12/12 14:55:22;;;;;;;11.05;6.45;;;12.50;99.90;;;;;;10478691;28;20105;-64
2023/12/12 15:00:25;;;;;;;7.82;6.00;;;13.40;99.90;;;;;;10480011;28;20075;-63
2023/12/12 15:05:28;;;;;;;8.40;5.18;;;13.40;99.90;;;;;;10469265;28;20044;-63
2023/12/12 15:10:30;;;;;;;7.65;4.85;;;12.20;99.90;;;;;;10470380;28;20040;-63
2023/12/12 15:15:32;;;;;;;9.75;6.18;;;12.10;99.90;;;;;;10468747;28;20063;-62
2023/12/12 15:20:37;;;;;;;6.47;4.85;;;11.50;99.90;;;;;;10475258;28;20071;-62
2023/12/12 15:25:39;;;;;;;11.77;5.72;;;11.10;99.90;;;;;;10475068;28;20209;-63
2023/12/12 15:30:41;;;;;;;15.47;9.00;;;11.30;99.90;;;;;;10469864;28;20111;-63
2023/12/12 15:35:44;;;;;;;19.58;11.02;;;11.40;99.90;;;;;;10471637;28;20973;-63
2023/12/12 15:40:46;;;;;;;28.05;16.92;;;11.30;99.90;;;;;;10465623;28;20106;-63
2023/12/12 15:45:48;;;;;;;31.13;18.40;;;11.00;99.90;;;;;;10462519;28;20063;-63
2023/12/12 15:50:52;;;;;;;24.80;15.00;;;11.00;99.90;;;;;;10467505;28;20935;-62
2023/12/12 15:55:54;;;;;;;20.50;12.23;;;11.50;99.90;;;;;;10468764;28;20713;-62
2023/12/12 16:00:59;;;;;;;20.88;12.93;;;11.50;99.90;;;;;;10460885;28;20046;-64
2023/12/12 16:06:07;;;;;;;17.95;8.13;;;11.70;99.90;;;;;;10468764;28;20044;-64
2023/12/12 16:11:10;;;;;;;24.00;14.18;;;12.00;99.90;;;;;;10467289;28;20407;-62
2023/12/12 16:16:15;;;;;;;15.85;6.32;;;11.40;99.90;;;;;;10468424;28;20138;-64
2023/12/12 16:21:18;;;;;;;12.05;6.78;;;12.40;99.90;;;;;;10470108;28;20159;-63
2023/12/12 16:26:20;;;;;;;7.78;4.13;;;14.20;99.90;;;;;;10460373;28;20063;-63
2023/12/12 16:31:22;;;;;;;8.37;4.30;;;15.20;99.90;;;;;;10466854;28;20396;-62
2023/12/12 16:36:29;;;;;;;6.27;3.00;;;16.20;99.90;;;;;;10464763;28;20059;-62
2023/12/12 16:41:33;;;;;;;7.88;3.65;;;17.00;99.90;;;;;;10466706;28;20040;-62
2023/12/12 16:46:36;;;;;;;4.88;2.55;;;17.10;99.90;;;;;;10467686;28;20053;-62
2023/12/12 16:51:41;;;;;;;6.28;3.40;;;16.90;99.90;;;;;;10465396;28;20056;-62
2023/12/12 16:56:46;;;;;;;10.40;3.72;;;16.30;99.90;;;;;;10469698;28;20039;-62
2023/12/12 17:01:49;;;;;;;10.35;4.68;;;14.20;99.90;;;;;;10473306;28;20550;-62
2023/12/12 17:06:52;;;;;;;23.92;6.35;;;12.60;99.90;;;;;;10468909;28;20076;-62
2023/12/12 17:11:54;;;;;;;13.15;6.55;;;11.70;99.90;;;;;;10464710;28;20045;-61
2023/12/12 17:16:56;;;;;;;17.95;5.32;;;11.20;99.90;;;;;;10464874;28;20834;-62
2023/12/12 17:22:00;;;;;;;8.38;2.95;;;10.70;99.90;;;;;;10463484;28;20097;-62
2023/12/12 17:27:02;;;;;;;14.80;3.75;;;10.30;99.90;;;;;;10475341;28;20542;-61
2023/12/12 17:32:10;;;;;;;11.63;2.07;;;10.50;99.90;;;;;;10464815;28;20072;-61
2023/12/12 17:37:13;;;;;;;8.68;2.83;;;11.20;99.90;;;;;;10467873;28;23189;-62
2023/12/12 17:42:15;;;;;;;6.05;1.73;;;10.60;99.90;;;;;;10471888;28;20040;-62
2023/12/12 17:47:19;;;;;;;2.15;1.02;;;10.90;99.90;;;;;;10468091;28;20106;-62
2023/12/12 17:52:23;;;;;;;6.72;1.45;;;12.60;99.90;;;;;;10463762;28;20455;-61
2023/12/12 17:57:25;;;;;;;2.85;1.17;;;13.80;99.90;;;;;;10465140;28;20047;-61
2023/12/12 18:02:30;;;;;;;7.97;2.73;;;13.80;99.90;;;;;;10470056;28;20504;-62
2023/12/12 18:07:33;;;;;;;4.75;2.40;;;14.30;99.90;;;;;;10469208;28;20079;-62
2023/12/12 18:12:36;;;;;;;4.20;1.35;;;16.30;99.90;;;;;;10479589;28;20102;-61
2023/12/12 18:17:38;;;;;;;5.00;1.63;;;13.70;99.90;;;;;;10474922;28;20057;-61
2023/12/12 18:22:41;;;;;;;18.20;2.70;;;12.20;99.90;;;;;;10466668;28;20604;-61
2023/12/12 18:27:43;;;;;;;6.57;1.70;;;12.60;99.90;;;;;;10459851;28;20704;-62
2023/12/12 18:32:45;;;;;;;10.93;2.37;;;11.40;99.90;;;;;;10479960;28;20086;-64
2023/12/12 18:37:49;;;;;;;7.57;2.78;;;10.50;99.90;;;;;;10475844;28;20837;-61
2023/12/12 18:42:51;;;;;;;8.95;2.10;;;10.50;99.90;;;;;;10478093;28;21085;-60
2023/12/12 18:47:53;;;;;;;8.23;2.65;;;11.00;99.90;;;;;;10468887;28;20164;-62
2023/12/12 18:52:57;;;;;;;3.97;1.30;;;12.30;99.90;;;;;;10467764;28;20140;-61
2023/12/12 18:57:59;;;;;;;7.95;1.50;;;12.70;99.90;;;;;;10471554;28;20079;-61
2023/12/12 19:03:01;;;;;;;5.13;2.05;;;11.60;99.90;;;;;;10470168;28;20494;-61
2023/12/12 19:08:05;;;;;;;7.88;2.05;;;11.30;99.90;;;;;;10472764;28;20870;-61
2023/12/12 19:13:07;;;;;;;5.15;1.80;;;14.40;99.90;;;;;;10458825;28;20095;-62
2023/12/12 19:18:09;;;;;;;6.63;1.70;;;16.30;99.90;;;;;;10460553;28;20048;-61
2023/12/12 19:23:13;;;;;;;10.57;2.57;;;16.70;99.90;;;;;;10463241;28;20943;-59
2023/12/12 19:28:15;;;;;;;7.45;1.63;;;17.20;99.90;;;;;;10460421;28;21397;-60
2023/12/12 19:33:19;;;;;;;8.02;1.75;;;17.50;99.60;;;;;;10466781;28;20838;-60
2023/12/12 19:38:22;;;;;;;10.75;2.17;;;17.70;98.60;;;;;;10469608;28;20106;-60
2023/12/12 19:43:24;;;;;;;5.05;1.70;;;17.80;97.80;;;;;;10471053;28;20047;-62
2023/12/12 19:48:27;;;;;;;9.25;2.28;;;17.90;97.30;;;;;;10471497;28;20048;-61
2023/12/12 19:53:30;;;;;;;5.25;1.70;;;18.00;96.90;;;;;;10468325;28;20052;-61
2023/12/12 19:58:32;;;;;;;3.97;1.95;;;18.10;96.60;;;;;;10465709;28;20128;-61
2023/12/12 20:03:34;;;;;;;6.60;1.85;;;18.10;96.30;;;;;;10467706;28;20533;-61
2023/12/12 20:08:37;;;;;;;4.72;1.95;;;18.20;96.20;;;;;;10466256;28;20064;-62
2023/12/12 20:13:40;;;;;;;8.23;2.53;;;18.20;95.70;;;;;;10458041;28;20040;-61
2023/12/12 20:18:43;;;;;;;6.53;3.83;;;18.20;95.70;;;;;;10463811;28;20083;-60
2023/12/12 20:23:47;;;;;;;4.70;2.60;;;18.40;95.40;;;;;;10464528;28;20061;-61
2023/12/12 20:28:49;;;;;;;6.07;2.20;;;18.20;95.40;;;;;;10464877;28;20083;-61
2023/12/12 20:33:51;;;;;;;7.40;2.08;;;18.40;94.80;;;;;;10456965;28;20051;-61
2023/12/12 20:38:54;;;;;;;4.07;1.95;;;18.10;95.60;;;;;;10463574;28;20074;-60
2023/12/12 20:43:56;;;;;;;3.67;1.10;;;17.70;95.70;;;;;;10455250;28;20360;-61
2023/12/12 20:48:58;;;;;;;5.38;2.13;;;16.90;97.40;;;;;;10460244;28;20949;-61
2023/12/12 20:54:02;;;;;;;4.60;1.30;;;17.30;97.80;;;;;;10465703;28;20044;-61
2023/12/12 20:59:05;;;;;;;3.55;1.23;;;17.00;95.20;;;;;;10482726;28;20051;-62
2023/12/12 21:04:07;;;;;;;2.80;1.48;;;16.00;97.20;;;;;;10476443;28;20732;-59
2023/12/12 21:09:10;;;;;;;1.73;1.03;;;17.00;99.00;;;;;;10479644;28;20056;-61
2023/12/12 21:14:12;;;;;;;3.67;1.33;;;17.70;96.80;;;;;;10468258;28;20055;-60
2023/12/12 21:19:14;;;;;;;3.42;1.20;;;18.00;95.10;;;;;;10468259;28;20080;-60
2023/12/12 21:24:18;;;;;;;2.65;1.33;;;18.00;95.10;;;;;;10468948;28;22173;-61
2023/12/12 21:29:20;;;;;;;3.95;1.48;;;17.60;96.20;;;;;;10471876;28;20147;-60
2023/12/12 21:34:22;;;;;;;1.35;1.00;;;17.80;95.60;;;;;;10469941;28;20051;-62
2023/12/12 21:39:26;;;;;;;4.53;1.33;;;17.90;95.00;;;;;;10479793;28;20784;-62
2023/12/12 21:44:30;;;;;;;3.17;1.30;;;17.80;95.00;;;;;;10472029;28;20182;-62
2023/12/12 21:49:32;;;;;;;3.03;1.30;;;17.90;94.50;;;;;;10477629;28;20056;-61
2023/12/12 21:54:36;;;;;;;4.78;1.40;;;17.40;94.90;;;;;;10470454;28;20044;-59
2023/12/12 21:59:40;;;;;;;5.78;1.45;;;16.00;95.60;;;;;;10481868;28;20058;-59
2023/12/12 22:04:41;;;;;;;8.15;1.88;;;15.40;99.90;;;;;;10477275;28;20049;-59
2023/12/12 22:09:45;;;;;;;4.57;1.40;;;15.50;99.90;;;;;;10482999;28;20500;-60
2023/12/12 22:14:47;;;;;;;5.45;1.40;;;16.10;99.90;;;;;;10485290;28;20056;-60
2023/12/12 22:19:49;;;;;;;4.20;1.60;;;15.40;99.10;;;;;;10484883;28;20525;-62
2023/12/12 22:24:52;;;;;;;4.93;1.17;;;14.70;99.90;;;;;;10481404;28;20044;-60
2023/12/12 22:29:55;;;;;;;5.90;1.70;;;15.60;99.90;;;;;;10481996;28;20052;-59
2023/12/12 22:34:57;;;;;;;6.23;2.47;;;14.40;99.80;;;;;;10474904;28;20091;-59
2023/12/12 22:40:00;;;;;;;5.47;1.70;;;14.70;99.90;;;;;;10477100;28;20059;-59
2023/12/12 22:45:03;;;;;;;6.78;1.90;;;14.40;99.90;;;;;;10456851;28;20056;-60
2023/12/12 22:50:07;;;;;;;2.83;1.40;;;14.80;99.90;;;;;;10473375;28;20171;-60
2023/12/12 22:55:11;;;;;;;4.88;1.90;;;14.70;99.90;;;;;;10475975;28;20048;-59
2023/12/12 23:00:29;;;;;;;8.15;2.30;;;13.50;99.90;;;;;;10473082;28;20052;-60
2023/12/12 23:05:32;;;;;;;5.75;2.50;;;13.30;99.90;;;;;;10467428;28;20759;-58
2023/12/12 23:10:35;;;;;;;4.88;1.50;;;13.30;99.90;;;;;;10466781;28;20048;-59
2023/12/12 23:15:37;;;;;;;10.38;1.77;;;12.50;99.90;;;;;;10477426;28;20047;-59
2023/12/12 23:20:39;;;;;;;9.70;2.53;;;13.50;99.90;;;;;;10474807;28;20208;-60
2023/12/12 23:25:43;;;;;;;6.10;1.50;;;12.70;99.90;;;;;;10479097;28;20505;-62
2023/12/12 23:30:46;;;;;;;5.45;1.95;;;13.00;99.90;;;;;;10473269;28;20076;-59
2023/12/12 23:35:47;;;;;;;6.55;2.08;;;13.20;99.90;;;;;;10478390;28;20048;-59
2023/12/12 23:40:51;;;;;;;6.82;1.85;;;13.70;99.90;;;;;;10473805;28;20059;-60
2023/12/12 23:45:53;;;;;;;5.63;1.67;;;13.20;99.90;;;;;;10469237;28;20125;-60
2023/12/12 23:50:55;;;;;;;5.38;2.00;;;13.40;99.90;;;;;;10471990;28;20495;-60
2023/12/12 23:55:58;;;;;;;5.93;2.03;;;11.90;99.90;;;;;;10471792;28;20114;-59
